Terminal Aerodrome Forecast
Issued by NWS

Home | Current Version | Previous Version | Text Only | Print | Product List | Glossary On
Versions: 1 2 3 4 5 6 7 8 9 10 11 12 13 14 15 16
000
FTUS44 KLIX 251725
TAFMCB
TAF
KMCB 251725Z 2518/2618 VRB05KT P6SM VCTS SCT030CB BKN060
      TEMPO 2520/2524 VRB25KT 2SM TSRA BKN030CB BKN050
     FM260000 VRB03KT P6SM SCT045 BKN250
     FM261200 VRB03KT P6SM SCT015
     FM261300 08004KT P6SM SCT020
     FM261600 11005KT P6SM SCT035 BKN050=

USA.gov is the U.S. government's official web portal to all federal, state and local government web resources and services.